sensor_id;sensor_type;location;lat;lon;timestamp;temperature;humidity
674;DHT22;319;48.764;9.174;2023-06-14T00:02:06;18.40;55.00
674;DHT22;319;48.764;9.174;2023-06-14T00:04:35;18.30;54.90
674;DHT22;319;48.764;9.174;2023-06-14T00:07:03;18.30;55.10
674;DHT22;319;48.764;9.174;2023-06-14T00:09:33;18.30;55.40
674;DHT22;319;48.764;9.174;2023-06-14T00:12:00;18.30;56.20
674;DHT22;319;48.764;9.174;2023-06-14T00:14:27;18.30;55.60
674;DHT22;319;48.764;9.174;2023-06-14T00:16:54;18.20;55.70
674;DHT22;319;48.764;9.174;2023-06-14T00:19:24;18.30;55.80
674;DHT22;319;48.764;9.174;2023-06-14T00:21:52;18.20;56.00
674;DHT22;319;48.764;9.174;2023-06-14T00:24:19;18.10;56.00
674;DHT22;319;48.764;9.174;2023-06-14T00:26:47;18.10;56.00
674;DHT22;319;48.764;9.174;2023-06-14T00:29:14;18.10;55.90
674;DHT22;319;48.764;9.174;2023-06-14T00:31:41;18.10;56.00
674;DHT22;319;48.764;9.174;2023-06-14T00:34:08;18.00;56.30
674;DHT22;319;48.764;9.174;2023-06-14T00:36:35;18.00;56.60
674;DHT22;319;48.764;9.174;2023-06-14T00:39:03;17.90;56.70
674;DHT22;319;48.764;9.174;2023-06-14T00:41:30;17.90;57.00
674;DHT22;319;48.764;9.174;2023-06-14T00:43:57;17.90;57.10
674;DHT22;319;48.764;9.174;2023-06-14T00:46:28;17.80;57.30
674;DHT22;319;48.764;9.174;2023-06-14T00:48:55;17.80;57.30
674;DHT22;319;48.764;9.174;2023-06-14T00:51:23;17.80;57.40
674;DHT22;319;48.764;9.174;2023-06-14T00:53:51;17.70;57.70
674;DHT22;319;48.764;9.174;2023-06-14T00:56:19;17.70;58.20
674;DHT22;319;48.764;9.174;2023-06-14T00:58:46;17.70;58.40
674;DHT22;319;48.764;9.174;2023-06-14T01:01:13;17.70;58.30
674;DHT22;319;48.764;9.174;2023-06-14T01:03:41;17.70;58.30
674;DHT22;319;48.764;9.174;2023-06-14T01:06:15;17.70;58.70
674;DHT22;319;48.764;9.174;2023-06-14T01:08:57;17.70;58.80
674;DHT22;319;48.764;9.174;2023-06-14T01:11:32;17.60;58.80
674;DHT22;319;48.764;9.174;2023-06-14T01:14:02;17.70;59.00
674;DHT22;319;48.764;9.174;2023-06-14T01:16:30;17.60;59.10
674;DHT22;319;48.764;9.174;2023-06-14T01:18:58;17.60;59.30
674;DHT22;319;48.764;9.174;2023-06-14T01:21:25;17.60;59.50
674;DHT22;319;48.764;9.174;2023-06-14T01:23:55;17.50;59.60
674;DHT22;319;48.764;9.174;2023-06-14T01:26:22;17.40;59.60
674;DHT22;319;48.764;9.174;2023-06-14T01:28:50;17.30;59.90
674;DHT22;319;48.764;9.174;2023-06-14T01:31:20;17.30;60.10
674;DHT22;319;48.764;9.174;2023-06-14T01:33:48;17.20;60.40
674;DHT22;319;48.764;9.174;2023-06-14T01:36:17;17.20;60.50
674;DHT22;319;48.764;9.174;2023-06-14T01:38:46;17.30;60.50
674;DHT22;319;48.764;9.174;2023-06-14T01:41:16;17.20;60.60
674;DHT22;319;48.764;9.174;2023-06-14T01:43:43;17.20;60.90
674;DHT22;319;48.764;9.174;2023-06-14T01:46:10;17.20;61.00
674;DHT22;319;48.764;9.174;2023-06-14T01:48:37;17.10;61.20
674;DHT22;319;48.764;9.174;2023-06-14T01:51:04;17.10;61.60
674;DHT22;319;48.764;9.174;2023-06-14T01:53:31;17.10;61.80
674;DHT22;319;48.764;9.174;2023-06-14T01:55:58;17.00;61.80
674;DHT22;319;48.764;9.174;2023-06-14T01:58:27;16.90;62.80
674;DHT22;319;48.764;9.174;2023-06-14T02:00:54;16.90;63.10
674;DHT22;319;48.764;9.174;2023-06-14T02:03:22;16.90;62.60
674;DHT22;319;48.764;9.174;2023-06-14T02:05:49;16.80;62.80
674;DHT22;319;48.764;9.174;2023-06-14T02:08:16;16.80;62.80
674;DHT22;319;48.764;9.174;2023-06-14T02:10:42;16.80;63.00
674;DHT22;319;48.764;9.174;2023-06-14T02:13:09;16.80;63.10
674;DHT22;319;48.764;9.174;2023-06-14T02:15:38;16.70;63.40
674;DHT22;319;48.764;9.174;2023-06-14T02:18:05;16.70;63.90
674;DHT22;319;48.764;9.174;2023-06-14T02:20:32;16.70;64.20
674;DHT22;319;48.764;9.174;2023-06-14T02:22:59;16.70;64.40
674;DHT22;319;48.764;9.174;2023-06-14T02:25:26;16.60;64.50
674;DHT22;319;48.764;9.174;2023-06-14T02:27:54;16.60;64.70
674;DHT22;319;48.764;9.174;2023-06-14T02:30:21;16.60;64.90
674;DHT22;319;48.764;9.174;2023-06-14T02:32:49;16.50;64.90
674;DHT22;319;48.764;9.174;2023-06-14T02:35:18;16.50;65.00
674;DHT22;319;48.764;9.174;2023-06-14T02:37:46;16.50;65.30
674;DHT22;319;48.764;9.174;2023-06-14T02:40:13;16.50;65.50
674;DHT22;319;48.764;9.174;2023-06-14T02:42:39;16.50;65.60
674;DHT22;319;48.764;9.174;2023-06-14T02:45:08;16.40;66.00
674;DHT22;319;48.764;9.174;2023-06-14T02:47:35;16.40;66.30
674;DHT22;319;48.764;9.174;2023-06-14T02:50:03;16.40;66.40
674;DHT22;319;48.764;9.174;2023-06-14T02:52:30;16.40;66.50
674;DHT22;319;48.764;9.174;2023-06-14T02:54:58;16.40;66.70
674;DHT22;319;48.764;9.174;2023-06-14T02:57:25;16.40;67.10
674;DHT22;319;48.764;9.174;2023-06-14T02:59:52;16.30;67.10
674;DHT22;319;48.764;9.174;2023-06-14T03:02:19;16.30;67.40
674;DHT22;319;48.764;9.174;2023-06-14T03:04:46;16.40;67.40
674;DHT22;319;48.764;9.174;2023-06-14T03:07:17;16.20;67.70
674;DHT22;319;48.764;9.174;2023-06-14T03:09:45;16.20;68.40
674;DHT22;319;48.764;9.174;2023-06-14T03:12:12;16.20;68.60
674;DHT22;319;48.764;9.174;2023-06-14T03:14:40;16.10;68.60
674;DHT22;319;48.764;9.174;2023-06-14T03:17:07;16.10;68.80
674;DHT22;319;48.764;9.174;2023-06-14T03:19:35;16.10;69.10
674;DHT22;319;48.764;9.174;2023-06-14T03:22:02;16.10;69.20
674;DHT22;319;48.764;9.174;2023-06-14T03:24:30;16.10;69.40
674;DHT22;319;48.764;9.174;2023-06-14T03:27:05;16.00;69.70
674;DHT22;319;48.764;9.174;2023-06-14T03:29:32;16.00;70.70
674;DHT22;319;48.764;9.174;2023-06-14T03:31:59;16.00;70.10
674;DHT22;319;48.764;9.174;2023-06-14T03:34:27;16.00;70.40
674;DHT22;319;48.764;9.174;2023-06-14T03:36:54;15.90;70.60
674;DHT22;319;48.764;9.174;2023-06-14T03:39:21;15.90;70.80
674;DHT22;319;48.764;9.174;2023-06-14T03:41:49;15.90;70.90
674;DHT22;319;48.764;9.174;2023-06-14T03:44:16;15.90;71.00
674;DHT22;319;48.764;9.174;2023-06-14T03:46:44;16.00;71.30
674;DHT22;319;48.764;9.174;2023-06-14T03:49:11;15.90;71.60
674;DHT22;319;48.764;9.174;2023-06-14T03:51:38;15.90;71.70
674;DHT22;319;48.764;9.174;2023-06-14T03:54:06;15.90;71.70
674;DHT22;319;48.764;9.174;2023-06-14T03:56:33;16.00;71.80
674;DHT22;319;48.764;9.174;2023-06-14T03:59:01;16.00;71.90
674;DHT22;319;48.764;9.174;2023-06-14T04:01:28;15.90;72.20
674;DHT22;319;48.764;9.174;2023-06-14T04:03:57;15.90;72.30
674;DHT22;319;48.764;9.174;2023-06-14T04:06:24;16.00;72.50
674;DHT22;319;48.764;9.174;2023-06-14T04:08:58;16.00;72.50
674;DHT22;319;48.764;9.174;2023-06-14T04:11:29;16.00;72.60
674;DHT22;319;48.764;9.174;2023-06-14T04:14:01;16.10;72.80
674;DHT22;319;48.764;9.174;2023-06-14T04:16:28;16.10;73.00
674;DHT22;319;48.764;9.174;2023-06-14T04:18:55;16.10;73.10
674;DHT22;319;48.764;9.174;2023-06-14T04:21:23;16.10;73.20
674;DHT22;319;48.764;9.174;2023-06-14T04:23:51;16.10;73.20
674;DHT22;319;48.764;9.174;2023-06-14T04:26:20;16.10;73.20
674;DHT22;319;48.764;9.174;2023-06-14T04:28:49;16.20;73.20
674;DHT22;319;48.764;9.174;2023-06-14T04:31:17;16.30;73.00
674;DHT22;319;48.764;9.174;2023-06-14T04:33:44;16.40;72.90
674;DHT22;319;48.764;9.174;2023-06-14T04:36:12;16.60;73.10
674;DHT22;319;48.764;9.174;2023-06-14T04:38:39;17.40;72.00
674;DHT22;319;48.764;9.174;2023-06-14T04:41:06;18.20;69.00
674;DHT22;319;48.764;9.174;2023-06-14T04:43:37;19.00;65.30
674;DHT22;319;48.764;9.174;2023-06-14T04:46:05;20.10;63.10
674;DHT22;319;48.764;9.174;2023-06-14T04:48:36;21.00;59.80
674;DHT22;319;48.764;9.174;2023-06-14T04:51:05;22.00;57.70
674;DHT22;319;48.764;9.174;2023-06-14T04:53:32;22.70;55.60
674;DHT22;319;48.764;9.174;2023-06-14T04:55:59;23.40;54.00
674;DHT22;319;48.764;9.174;2023-06-14T04:58:27;23.70;52.40
674;DHT22;319;48.764;9.174;2023-06-14T05:00:54;23.40;52.10
674;DHT22;319;48.764;9.174;2023-06-14T05:03:21;22.90;52.60
674;DHT22;319;48.764;9.174;2023-06-14T05:05:50;22.40;53.10
674;DHT22;319;48.764;9.174;2023-06-14T05:08:18;22.00;53.90
674;DHT22;319;48.764;9.174;2023-06-14T05:10:49;21.50;54.90
674;DHT22;319;48.764;9.174;2023-06-14T05:13:15;21.10;55.70
674;DHT22;319;48.764;9.174;2023-06-14T05:15:42;20.80;56.50
674;DHT22;319;48.764;9.174;2023-06-14T05:18:10;20.60;56.40
674;DHT22;319;48.764;9.174;2023-06-14T05:20:38;20.40;56.90
674;DHT22;319;48.764;9.174;2023-06-14T05:23:09;20.20;57.80
674;DHT22;319;48.764;9.174;2023-06-14T05:25:41;20.00;58.00
674;DHT22;319;48.764;9.174;2023-06-14T05:28:08;19.80;58.20
674;DHT22;319;48.764;9.174;2023-06-14T05:30:35;19.70;58.20
674;DHT22;319;48.764;9.174;2023-06-14T05:33:02;19.50;58.80
674;DHT22;319;48.764;9.174;2023-06-14T05:35:30;19.60;58.80
674;DHT22;319;48.764;9.174;2023-06-14T05:37:57;19.60;58.40
674;DHT22;319;48.764;9.174;2023-06-14T05:40:25;19.60;58.20
674;DHT22;319;48.764;9.174;2023-06-14T05:42:52;19.60;57.30
674;DHT22;319;48.764;9.174;2023-06-14T05:45:19;19.70;57.60
674;DHT22;319;48.764;9.174;2023-06-14T05:47:46;19.80;57.30
674;DHT22;319;48.764;9.174;2023-06-14T05:50:13;19.80;57.00
674;DHT22;319;48.764;9.174;2023-06-14T05:52:40;19.80;56.80
674;DHT22;319;48.764;9.174;2023-06-14T05:55:07;19.80;56.70
674;DHT22;319;48.764;9.174;2023-06-14T05:57:36;19.90;56.50
674;DHT22;319;48.764;9.174;2023-06-14T06:00:03;20.10;56.00
674;DHT22;319;48.764;9.174;2023-06-14T06:02:36;20.20;55.40
674;DHT22;319;48.764;9.174;2023-06-14T06:05:03;20.40;55.30
674;DHT22;319;48.764;9.174;2023-06-14T06:07:31;20.80;54.90
674;DHT22;319;48.764;9.174;2023-06-14T06:09:58;21.30;54.10
674;DHT22;319;48.764;9.174;2023-06-14T06:12:25;22.20;52.90
674;DHT22;319;48.764;9.174;2023-06-14T06:14:53;23.40;50.90
674;DHT22;319;48.764;9.174;2023-06-14T06:17:20;24.90;49.20
674;DHT22;319;48.764;9.174;2023-06-14T06:19:47;26.30;46.00
674;DHT22;319;48.764;9.174;2023-06-14T06:22:14;27.30;44.10
674;DHT22;319;48.764;9.174;2023-06-14T06:24:42;28.30;41.50
674;DHT22;319;48.764;9.174;2023-06-14T06:27:09;28.90;40.10
674;DHT22;319;48.764;9.174;2023-06-14T06:29:38;29.70;38.60
674;DHT22;319;48.764;9.174;2023-06-14T06:32:07;29.80;37.50
674;DHT22;319;48.764;9.174;2023-06-14T06:34:34;30.50;36.30
674;DHT22;319;48.764;9.174;2023-06-14T06:37:02;31.00;35.50
674;DHT22;319;48.764;9.174;2023-06-14T06:39:29;31.60;35.10
674;DHT22;319;48.764;9.174;2023-06-14T06:41:56;32.30;33.90
674;DHT22;319;48.764;9.174;2023-06-14T06:44:23;32.90;32.70
674;DHT22;319;48.764;9.174;2023-06-14T06:46:50;33.20;32.00
674;DHT22;319;48.764;9.174;2023-06-14T06:49:18;33.20;32.10
674;DHT22;319;48.764;9.174;2023-06-14T06:51:59;33.10;31.70
674;DHT22;319;48.764;9.174;2023-06-14T06:54:26;32.80;31.80
674;DHT22;319;48.764;9.174;2023-06-14T06:56:53;32.50;32.40
674;DHT22;319;48.764;9.174;2023-06-14T06:59:20;31.80;32.20
674;DHT22;319;48.764;9.174;2023-06-14T07:01:47;31.90;33.20
674;DHT22;319;48.764;9.174;2023-06-14T07:04:14;31.70;33.80
674;DHT22;319;48.764;9.174;2023-06-14T07:06:43;32.30;33.10
674;DHT22;319;48.764;9.174;2023-06-14T07:09:10;32.70;32.40
674;DHT22;319;48.764;9.174;2023-06-14T07:11:38;32.90;31.50
674;DHT22;319;48.764;9.174;2023-06-14T07:14:05;33.20;31.20
674;DHT22;319;48.764;9.174;2023-06-14T07:16:32;33.40;30.70
674;DHT22;319;48.764;9.174;2023-06-14T07:18:59;33.50;30.60
674;DHT22;319;48.764;9.174;2023-06-14T07:21:26;33.30;30.60
674;DHT22;319;48.764;9.174;2023-06-14T07:23:54;33.50;31.20
674;DHT22;319;48.764;9.174;2023-06-14T07:26:21;33.70;30.50
674;DHT22;319;48.764;9.174;2023-06-14T07:28:49;33.50;30.20
674;DHT22;319;48.764;9.174;2023-06-14T07:31:16;33.30;30.30
674;DHT22;319;48.764;9.174;2023-06-14T07:33:44;33.40;30.10
674;DHT22;319;48.764;9.174;2023-06-14T07:36:11;33.60;30.30
674;DHT22;319;48.764;9.174;2023-06-14T07:38:38;33.70;29.70
674;DHT22;319;48.764;9.174;2023-06-14T07:41:07;34.00;29.50
674;DHT22;319;48.764;9.174;2023-06-14T07:43:34;34.30;29.60
674;DHT22;319;48.764;9.174;2023-06-14T07:46:01;34.50;29.40
674;DHT22;319;48.764;9.174;2023-06-14T07:48:28;34.60;29.30
674;DHT22;319;48.764;9.174;2023-06-14T07:50:55;34.80;29.00
674;DHT22;319;48.764;9.174;2023-06-14T07:53:22;34.90;28.60
674;DHT22;319;48.764;9.174;2023-06-14T07:55:49;34.70;28.60
674;DHT22;319;48.764;9.174;2023-06-14T07:58:17;34.60;28.50
674;DHT22;319;48.764;9.174;2023-06-14T08:00:44;34.30;28.60
674;DHT22;319;48.764;9.174;2023-06-14T08:03:16;33.90;29.10
674;DHT22;319;48.764;9.174;2023-06-14T08:05:43;34.00;29.00
674;DHT22;319;48.764;9.174;2023-06-14T08:08:14;33.70;29.50
674;DHT22;319;48.764;9.174;2023-06-14T08:10:44;34.10;29.40
674;DHT22;319;48.764;9.174;2023-06-14T08:13:11;34.20;29.20
674;DHT22;319;48.764;9.174;2023-06-14T08:15:40;34.30;28.90
674;DHT22;319;48.764;9.174;2023-06-14T08:18:07;34.00;29.40
674;DHT22;319;48.764;9.174;2023-06-14T08:20:35;33.90;29.40
674;DHT22;319;48.764;9.174;2023-06-14T08:23:03;34.10;29.50
674;DHT22;319;48.764;9.174;2023-06-14T08:25:30;34.60;29.70
674;DHT22;319;48.764;9.174;2023-06-14T08:27:58;33.60;29.70
674;DHT22;319;48.764;9.174;2023-06-14T08:30:25;33.20;30.50
674;DHT22;319;48.764;9.174;2023-06-14T08:32:53;33.40;30.50
674;DHT22;319;48.764;9.174;2023-06-14T08:35:22;33.50;30.40
674;DHT22;319;48.764;9.174;2023-06-14T08:37:49;33.50;30.80
674;DHT22;319;48.764;9.174;2023-06-14T08:40:21;33.50;30.40
674;DHT22;319;48.764;9.174;2023-06-14T08:42:51;33.10;31.30
674;DHT22;319;48.764;9.174;2023-06-14T08:45:19;33.00;31.10
674;DHT22;319;48.764;9.174;2023-06-14T08:47:47;32.40;32.30
674;DHT22;319;48.764;9.174;2023-06-14T08:50:20;31.90;32.40
674;DHT22;319;48.764;9.174;2023-06-14T08:52:54;31.90;32.90
674;DHT22;319;48.764;9.174;2023-06-14T08:55:23;32.60;32.90
674;DHT22;319;48.764;9.174;2023-06-14T08:57:54;32.00;32.40
674;DHT22;319;48.764;9.174;2023-06-14T09:00:23;32.80;32.60
674;DHT22;319;48.764;9.174;2023-06-14T09:02:51;33.10;31.80
674;DHT22;319;48.764;9.174;2023-06-14T09:05:24;32.90;31.80
674;DHT22;319;48.764;9.174;2023-06-14T09:07:52;32.60;31.70
674;DHT22;319;48.764;9.174;2023-06-14T09:10:21;32.70;31.80
674;DHT22;319;48.764;9.174;2023-06-14T09:12:48;33.30;31.60
674;DHT22;319;48.764;9.174;2023-06-14T09:15:15;32.50;31.10
674;DHT22;319;48.764;9.174;2023-06-14T09:17:42;32.70;31.60
674;DHT22;319;48.764;9.174;2023-06-14T09:20:10;33.00;31.40
674;DHT22;319;48.764;9.174;2023-06-14T09:22:40;32.60;31.70
674;DHT22;319;48.764;9.174;2023-06-14T09:25:08;31.60;33.20
674;DHT22;319;48.764;9.174;2023-06-14T09:27:35;31.30;34.20
674;DHT22;319;48.764;9.174;2023-06-14T09:30:06;30.90;34.40
674;DHT22;319;48.764;9.174;2023-06-14T09:32:37;30.00;35.30
674;DHT22;319;48.764;9.174;2023-06-14T09:35:04;29.40;36.80
674;DHT22;319;48.764;9.174;2023-06-14T09:37:32;28.80;36.20
674;DHT22;319;48.764;9.174;2023-06-14T09:40:01;28.30;37.30
674;DHT22;319;48.764;9.174;2023-06-14T09:42:30;27.90;38.00
674;DHT22;319;48.764;9.174;2023-06-14T09:44:57;27.60;38.80
674;DHT22;319;48.764;9.174;2023-06-14T09:47:24;27.50;39.00
674;DHT22;319;48.764;9.174;2023-06-14T09:49:51;27.40;39.70
674;DHT22;319;48.764;9.174;2023-06-14T09:52:21;27.20;39.90
674;DHT22;319;48.764;9.174;2023-06-14T09:54:49;27.20;40.30
674;DHT22;319;48.764;9.174;2023-06-14T09:57:21;27.20;40.60
674;DHT22;319;48.764;9.174;2023-06-14T09:59:52;27.20;39.90
674;DHT22;319;48.764;9.174;2023-06-14T10:02:24;27.00;39.60
674;DHT22;319;48.764;9.174;2023-06-14T10:04:58;26.90;40.90
674;DHT22;319;48.764;9.174;2023-06-14T10:07:34;27.10;40.20
674;DHT22;319;48.764;9.174;2023-06-14T10:10:02;27.00;39.10
674;DHT22;319;48.764;9.174;2023-06-14T10:12:31;27.10;38.90
674;DHT22;319;48.764;9.174;2023-06-14T10:14:59;27.10;38.70
674;DHT22;319;48.764;9.174;2023-06-14T10:17:34;26.90;39.80
674;DHT22;319;48.764;9.174;2023-06-14T10:20:14;26.70;39.00
674;DHT22;319;48.764;9.174;2023-06-14T10:22:47;26.60;39.00
674;DHT22;319;48.764;9.174;2023-06-14T10:25:26;26.70;39.50
674;DHT22;319;48.764;9.174;2023-06-14T10:31:04;27.00;39.30
674;DHT22;319;48.764;9.174;2023-06-14T10:33:31;27.10;38.30
674;DHT22;319;48.764;9.174;2023-06-14T10:36:09;26.70;38.80
674;DHT22;319;48.764;9.174;2023-06-14T10:38:37;26.50;39.30
674;DHT22;319;48.764;9.174;2023-06-14T10:41:04;26.40;39.60
674;DHT22;319;48.764;9.174;2023-06-14T10:43:33;26.70;39.70
674;DHT22;319;48.764;9.174;2023-06-14T10:46:15;26.60;40.20
674;DHT22;319;48.764;9.174;2023-06-14T10:48:43;26.30;41.00
674;DHT22;319;48.764;9.174;2023-06-14T10:51:18;26.20;40.70
674;DHT22;319;48.764;9.174;2023-06-14T10:53:48;26.30;40.50
674;DHT22;319;48.764;9.174;2023-06-14T10:56:33;26.30;40.00
674;DHT22;319;48.764;9.174;2023-06-14T10:59:02;26.20;40.50
674;DHT22;319;48.764;9.174;2023-06-14T11:01:41;26.30;40.90
674;DHT22;319;48.764;9.174;2023-06-14T11:04:11;26.40;40.10
674;DHT22;319;48.764;9.174;2023-06-14T11:06:46;26.40;39.70
674;DHT22;319;48.764;9.174;2023-06-14T11:09:47;26.40;39.70
674;DHT22;319;48.764;9.174;2023-06-14T11:12:18;26.70;39.20
674;DHT22;319;48.764;9.174;2023-06-14T11:14:47;26.70;38.70
674;DHT22;319;48.764;9.174;2023-06-14T11:17:44;26.70;38.30
674;DHT22;319;48.764;9.174;2023-06-14T11:20:35;26.80;38.20
674;DHT22;319;48.764;9.174;2023-06-14T11:23:05;26.90;38.30
674;DHT22;319;48.764;9.174;2023-06-14T11:25:33;26.90;38.40
674;DHT22;319;48.764;9.174;2023-06-14T11:28:03;26.80;38.30
674;DHT22;319;48.764;9.174;2023-06-14T11:30:48;27.00;38.20
674;DHT22;319;48.764;9.174;2023-06-14T11:33:17;27.30;37.90
674;DHT22;319;48.764;9.174;2023-06-14T11:35:45;27.40;36.60
674;DHT22;319;48.764;9.174;2023-06-14T11:38:12;27.30;36.50
674;DHT22;319;48.764;9.174;2023-06-14T11:40:39;27.10;36.80
674;DHT22;319;48.764;9.174;2023-06-14T11:43:06;26.90;37.20
674;DHT22;319;48.764;9.174;2023-06-14T11:45:32;26.80;37.20
674;DHT22;319;48.764;9.174;2023-06-14T11:48:01;26.50;37.50
674;DHT22;319;48.764;9.174;2023-06-14T11:50:28;26.20;36.60
674;DHT22;319;48.764;9.174;2023-06-14T11:52:56;26.20;36.80
674;DHT22;319;48.764;9.174;2023-06-14T11:55:23;26.30;37.30
674;DHT22;319;48.764;9.174;2023-06-14T11:57:50;26.30;37.40
674;DHT22;319;48.764;9.174;2023-06-14T12:00:18;26.40;36.80
674;DHT22;319;48.764;9.174;2023-06-14T12:02:53;26.60;36.60
674;DHT22;319;48.764;9.174;2023-06-14T12:05:22;26.90;36.40
674;DHT22;319;48.764;9.174;2023-06-14T12:07:50;27.00;36.20
674;DHT22;319;48.764;9.174;2023-06-14T12:10:19;27.20;36.30
674;DHT22;319;48.764;9.174;2023-06-14T12:12:46;27.30;36.10
674;DHT22;319;48.764;9.174;2023-06-14T12:15:13;27.20;35.80
674;DHT22;319;48.764;9.174;2023-06-14T12:17:42;27.20;35.90
674;DHT22;319;48.764;9.174;2023-06-14T12:20:36;27.30;35.90
674;DHT22;319;48.764;9.174;2023-06-14T12:23:09;27.30;36.10
674;DHT22;319;48.764;9.174;2023-06-14T12:25:42;27.20;36.20
674;DHT22;319;48.764;9.174;2023-06-14T12:28:10;27.40;36.50
674;DHT22;319;48.764;9.174;2023-06-14T12:30:38;27.40;35.90
674;DHT22;319;48.764;9.174;2023-06-14T12:33:09;27.40;35.80
674;DHT22;319;48.764;9.174;2023-06-14T12:35:39;27.70;35.90
674;DHT22;319;48.764;9.174;2023-06-14T12:38:07;27.80;35.30
674;DHT22;319;48.764;9.174;2023-06-14T12:40:35;27.80;35.20
674;DHT22;319;48.764;9.174;2023-06-14T12:43:21;27.50;35.30
674;DHT22;319;48.764;9.174;2023-06-14T12:45:51;27.30;35.80
674;DHT22;319;48.764;9.174;2023-06-14T12:48:20;27.10;36.60
674;DHT22;319;48.764;9.174;2023-06-14T12:50:49;26.80;37.20
674;DHT22;319;48.764;9.174;2023-06-14T12:53:17;26.80;37.50
674;DHT22;319;48.764;9.174;2023-06-14T12:55:44;26.90;37.80
674;DHT22;319;48.764;9.174;2023-06-14T12:58:11;27.00;37.60
674;DHT22;319;48.764;9.174;2023-06-14T13:00:39;27.10;37.20
674;DHT22;319;48.764;9.174;2023-06-14T13:03:06;26.80;37.20
674;DHT22;319;48.764;9.174;2023-06-14T13:05:33;26.80;37.90
674;DHT22;319;48.764;9.174;2023-06-14T13:08:01;26.80;37.70
674;DHT22;319;48.764;9.174;2023-06-14T13:10:28;26.70;38.20
674;DHT22;319;48.764;9.174;2023-06-14T13:12:55;26.80;37.90
674;DHT22;319;48.764;9.174;2023-06-14T13:15:25;27.00;37.00
674;DHT22;319;48.764;9.174;2023-06-14T13:17:52;27.00;37.00
674;DHT22;319;48.764;9.174;2023-06-14T13:20:19;27.10;36.90
674;DHT22;319;48.764;9.174;2023-06-14T13:22:46;27.10;36.80
674;DHT22;319;48.764;9.174;2023-06-14T13:25:14;27.00;36.50
674;DHT22;319;48.764;9.174;2023-06-14T13:27:41;27.10;36.30
674;DHT22;319;48.764;9.174;2023-06-14T13:30:09;27.10;36.50
674;DHT22;319;48.764;9.174;2023-06-14T13:32:36;27.20;36.50
674;DHT22;319;48.764;9.174;2023-06-14T13:35:04;27.20;36.10
674;DHT22;319;48.764;9.174;2023-06-14T13:37:31;27.30;35.90
674;DHT22;319;48.764;9.174;2023-06-14T13:39:58;27.30;36.40
674;DHT22;319;48.764;9.174;2023-06-14T13:42:28;27.30;37.20
674;DHT22;319;48.764;9.174;2023-06-14T13:44:58;27.40;37.50
674;DHT22;319;48.764;9.174;2023-06-14T13:47:26;27.40;37.30
674;DHT22;319;48.764;9.174;2023-06-14T13:49:53;27.40;37.20
674;DHT22;319;48.764;9.174;2023-06-14T13:52:20;27.20;37.40
674;DHT22;319;48.764;9.174;2023-06-14T13:54:48;27.20;37.30
674;DHT22;319;48.764;9.174;2023-06-14T13:57:16;27.30;37.10
674;DHT22;319;48.764;9.174;2023-06-14T13:59:47;27.30;37.00
674;DHT22;319;48.764;9.174;2023-06-14T14:02:15;27.00;37.40
674;DHT22;319;48.764;9.174;2023-06-14T14:04:42;27.10;37.60
674;DHT22;319;48.764;9.174;2023-06-14T14:07:09;27.30;37.70
674;DHT22;319;48.764;9.174;2023-06-14T14:09:37;27.20;37.00
674;DHT22;319;48.764;9.174;2023-06-14T14:12:08;26.90;37.30
674;DHT22;319;48.764;9.174;2023-06-14T14:14:36;26.80;37.80
674;DHT22;319;48.764;9.174;2023-06-14T14:17:04;26.80;37.90
674;DHT22;319;48.764;9.174;2023-06-14T14:19:32;27.00;37.40
674;DHT22;319;48.764;9.174;2023-06-14T14:22:00;27.10;37.20
674;DHT22;319;48.764;9.174;2023-06-14T14:24:27;27.30;37.20
674;DHT22;319;48.764;9.174;2023-06-14T14:26:54;27.50;37.00
674;DHT22;319;48.764;9.174;2023-06-14T14:29:25;27.60;37.20
674;DHT22;319;48.764;9.174;2023-06-14T14:31:54;27.60;37.50
674;DHT22;319;48.764;9.174;2023-06-14T14:34:24;27.50;37.00
674;DHT22;319;48.764;9.174;2023-06-14T14:36:51;27.40;37.20
674;DHT22;319;48.764;9.174;2023-06-14T14:39:18;27.40;38.00
674;DHT22;319;48.764;9.174;2023-06-14T14:41:44;27.30;38.40
674;DHT22;319;48.764;9.174;2023-06-14T14:50:54;26.90;38.70
674;DHT22;319;48.764;9.174;2023-06-14T14:53:42;26.60;39.10
674;DHT22;319;48.764;9.174;2023-06-14T14:56:09;26.50;39.20
674;DHT22;319;48.764;9.174;2023-06-14T14:58:37;26.40;39.50
674;DHT22;319;48.764;9.174;2023-06-14T15:01:04;26.50;39.20
674;DHT22;319;48.764;9.174;2023-06-14T15:03:32;26.40;39.10
674;DHT22;319;48.764;9.174;2023-06-14T15:06:01;26.30;39.60
674;DHT22;319;48.764;9.174;2023-06-14T15:08:28;26.20;39.00
674;DHT22;319;48.764;9.174;2023-06-14T15:10:55;26.30;39.40
674;DHT22;319;48.764;9.174;2023-06-14T15:13:21;26.40;38.90
674;DHT22;319;48.764;9.174;2023-06-14T15:15:49;26.50;38.90
674;DHT22;319;48.764;9.174;2023-06-14T15:18:16;26.30;38.50
674;DHT22;319;48.764;9.174;2023-06-14T15:20:46;26.40;38.60
674;DHT22;319;48.764;9.174;2023-06-14T15:23:14;26.60;38.40
674;DHT22;319;48.764;9.174;2023-06-14T15:25:45;26.50;39.30
674;DHT22;319;48.764;9.174;2023-06-14T15:28:18;26.40;39.50
674;DHT22;319;48.764;9.174;2023-06-14T15:30:50;26.50;39.80
674;DHT22;319;48.764;9.174;2023-06-14T15:33:17;26.50;39.80
674;DHT22;319;48.764;9.174;2023-06-14T15:35:47;26.60;39.80
674;DHT22;319;48.764;9.174;2023-06-14T15:38:15;26.60;39.30
674;DHT22;319;48.764;9.174;2023-06-14T15:40:42;26.50;39.30
674;DHT22;319;48.764;9.174;2023-06-14T15:43:09;26.50;39.10
674;DHT22;319;48.764;9.174;2023-06-14T15:45:36;26.50;39.10
674;DHT22;319;48.764;9.174;2023-06-14T15:48:05;26.50;39.60
674;DHT22;319;48.764;9.174;2023-06-14T15:50:33;26.50;39.90
674;DHT22;319;48.764;9.174;2023-06-14T15:53:00;26.40;39.50
674;DHT22;319;48.764;9.174;2023-06-14T15:55:28;26.30;39.90
674;DHT22;319;48.764;9.174;2023-06-14T15:57:55;26.20;40.10
674;DHT22;319;48.764;9.174;2023-06-14T16:00:22;26.00;40.40
674;DHT22;319;48.764;9.174;2023-06-14T16:02:50;25.90;40.50
674;DHT22;319;48.764;9.174;2023-06-14T16:05:18;25.80;40.40
674;DHT22;319;48.764;9.174;2023-06-14T16:07:45;25.70;40.60
674;DHT22;319;48.764;9.174;2023-06-14T16:10:13;25.70;40.70
674;DHT22;319;48.764;9.174;2023-06-14T16:12:41;25.70;40.80
674;DHT22;319;48.764;9.174;2023-06-14T16:15:12;25.70;40.60
674;DHT22;319;48.764;9.174;2023-06-14T16:17:40;25.70;40.20
674;DHT22;319;48.764;9.174;2023-06-14T16:20:09;25.60;40.10
674;DHT22;319;48.764;9.174;2023-06-14T16:22:36;25.70;40.10
674;DHT22;319;48.764;9.174;2023-06-14T16:25:04;25.70;39.90
674;DHT22;319;48.764;9.174;2023-06-14T16:27:32;25.70;40.00
674;DHT22;319;48.764;9.174;2023-06-14T16:30:00;25.70;39.90
674;DHT22;319;48.764;9.174;2023-06-14T16:32:27;25.80;39.70
674;DHT22;319;48.764;9.174;2023-06-14T16:34:54;25.70;39.80
674;DHT22;319;48.764;9.174;2023-06-14T16:37:21;25.80;40.00
674;DHT22;319;48.764;9.174;2023-06-14T16:39:48;25.70;40.00
674;DHT22;319;48.764;9.174;2023-06-14T16:42:15;25.70;40.40
674;DHT22;319;48.764;9.174;2023-06-14T16:44:42;25.70;40.60
674;DHT22;319;48.764;9.174;2023-06-14T16:47:13;25.70;40.80
674;DHT22;319;48.764;9.174;2023-06-14T16:49:40;25.70;40.80
674;DHT22;319;48.764;9.174;2023-06-14T16:52:07;25.70;41.00
674;DHT22;319;48.764;9.174;2023-06-14T16:54:35;25.70;41.20